Prairie Rose, North Dakota
Current Conditions -  °F | °C
As of 8:53 PM on Monday 20 Oct 2014 (Local Time) from KFAR Reporting Station
Clear Clear  
Wind Chill: 46°   Ceiling: Unl
Heat Index: 48°   Visibility: 10mi
Dew Point: 39°   Wind: 5mph
Humidity: 71%   Direction: 100°E
Pressure: 30.03"   Gusts: NA
Location:  46.8079°N, 96.8643°W
Report Text: KFAR 210153Z 10004KT 10SM CLR 09/04 A3003 RMK AO2 SLP177 T00890039
Loading
Personal Weather Stations






























Interactive Weather Map
Tropical Storm Tracking
New forecast layout! Learn more

10-Day Weather Forecast

Advertisements
Track Severe Weather on mobile